createdAt,value
2023-04-27T00:03:08.516Z,4.03
2023-04-27T00:07:14.042Z,3.95
2023-04-27T00:11:22.967Z,3.87
2023-04-27T00:15:26.100Z,3.82
2023-04-27T00:19:30.900Z,3.82
2023-04-27T00:23:34.190Z,3.84
2023-04-27T00:27:37.100Z,3.85
2023-04-27T00:31:45.344Z,3.87
2023-04-27T00:35:48.401Z,3.95
2023-04-27T00:39:51.646Z,4.02
2023-04-27T00:43:54.620Z,4.04
2023-04-27T00:48:00.465Z,4.06
2023-04-27T00:52:03.666Z,4.10
2023-04-27T00:56:08.246Z,4.12
2023-04-27T01:00:12.347Z,4.13
2023-04-27T01:04:17.359Z,4.10
2023-04-27T01:08:20.525Z,4.06
2023-04-27T01:12:24.617Z,4.06
2023-04-27T01:16:27.529Z,4.07
2023-04-27T01:20:30.595Z,4.06
2023-04-27T01:24:35.494Z,4.05
2023-04-27T01:28:40.918Z,4.06
2023-04-27T01:32:44.003Z,4.09
2023-04-27T01:36:46.882Z,4.13
2023-04-27T01:40:50.837Z,4.19
2023-04-27T01:44:54.885Z,4.25
2023-04-27T01:48:58.359Z,4.28
2023-04-27T01:53:01.339Z,4.30
2023-04-27T01:57:18.184Z,4.34
2023-04-27T02:01:21.619Z,4.30
2023-04-27T02:05:24.545Z,4.24
2023-04-27T02:09:27.604Z,4.21
2023-04-27T02:13:30.578Z,4.16
2023-04-27T02:17:36.492Z,4.06
2023-04-27T02:22:05.057Z,3.90
2023-04-27T02:26:18.604Z,3.81
2023-04-27T02:30:22.878Z,3.81
2023-04-27T02:34:32.545Z,3.84
2023-04-27T02:38:35.386Z,3.84
2023-04-27T02:42:39.575Z,3.83
2023-04-27T02:46:49.410Z,3.80
2023-04-27T02:50:52.364Z,3.73
2023-04-27T02:54:55.306Z,3.65
2023-04-27T02:58:58.339Z,3.57
2023-04-27T03:03:03.021Z,3.52
2023-04-27T03:07:08.352Z,3.50
2023-04-27T03:11:14.604Z,3.47
2023-04-27T03:15:17.585Z,3.42
2023-04-27T03:19:37.959Z,3.42
2023-04-27T03:23:41.391Z,3.39
2023-04-27T03:27:44.385Z,3.37
2023-04-27T03:31:47.202Z,3.36
2023-04-27T03:35:57.484Z,3.38
2023-04-27T03:40:00.945Z,3.43
2023-04-27T03:44:05.071Z,3.46
2023-04-27T03:48:08.241Z,3.46
2023-04-27T03:52:19.059Z,3.46
2023-04-27T03:56:22.577Z,3.49
2023-04-27T04:00:25.454Z,3.53
2023-04-27T04:04:29.701Z,3.55
2023-04-27T04:08:35.030Z,3.55
2023-04-27T04:13:05.880Z,3.54
2023-04-27T04:17:11.657Z,3.78
2023-04-27T04:21:19.917Z,4.21
2023-04-27T04:25:22.770Z,4.53
2023-04-27T04:29:25.746Z,4.57
2023-04-27T04:33:28.584Z,4.58
2023-04-27T04:37:35.536Z,4.59
2023-04-27T04:41:39.071Z,4.32
2023-04-27T04:45:42.875Z,4.11
2023-04-27T04:49:45.888Z,4.09
2023-04-27T04:53:50.240Z,4.12
2023-04-27T04:57:55.764Z,4.22
2023-04-27T05:01:58.791Z,4.44
2023-04-27T05:06:05.667Z,4.72
2023-04-27T05:10:08.962Z,5.57
2023-04-27T05:14:14.027Z,6.71
2023-04-27T05:18:17.320Z,7.14
2023-04-27T05:22:22.146Z,7.22
2023-04-27T05:26:25.847Z,7.21
2023-04-27T05:30:29.190Z,7.31
2023-04-27T05:34:33.394Z,7.18
2023-04-27T05:38:40.401Z,6.92
2023-04-27T05:42:46.963Z,6.80
2023-04-27T05:46:51.905Z,6.83
2023-04-27T05:51:04.653Z,6.90
2023-04-27T05:55:08.379Z,6.98
2023-04-27T05:59:12.377Z,7.02
2023-04-27T06:03:16.073Z,6.99
2023-04-27T06:07:19.472Z,7.09
2023-04-27T06:11:23.966Z,7.17
2023-04-27T06:15:27.260Z,7.21
2023-04-27T06:19:30.536Z,7.25
2023-04-27T06:23:34.123Z,7.34
2023-04-27T06:27:39.439Z,7.58
2023-04-27T06:31:42.775Z,7.83
2023-04-27T06:35:47.718Z,7.96
2023-04-27T06:39:51.886Z,8.18
2023-04-27T06:43:56.278Z,8.57
2023-04-27T06:48:01.900Z,8.72
2023-04-27T06:52:05.342Z,9.12
2023-04-27T06:56:12.267Z,9.55
2023-04-27T07:00:15.591Z,9.81
2023-04-27T07:04:18.852Z,9.97
2023-04-27T07:08:22.157Z,10.27
2023-04-27T07:12:25.432Z,10.49
2023-04-27T07:16:28.762Z,10.47
2023-04-27T07:20:33.322Z,10.64
2023-04-27T07:24:37.783Z,10.74
2023-04-27T07:28:41.779Z,10.82
2023-04-27T07:32:45.065Z,10.75
2023-04-27T07:36:49.246Z,10.79
2023-04-27T07:40:52.957Z,10.82
2023-04-27T07:44:57.348Z,10.66
2023-04-27T07:49:02.546Z,10.55
2023-04-27T07:53:06.614Z,10.77
2023-04-27T07:57:13.867Z,10.72
2023-04-27T08:01:20.154Z,10.82
2023-04-27T08:05:27.277Z,10.85
2023-04-27T08:09:31.661Z,10.92
2023-04-27T08:13:36.371Z,10.99
2023-04-27T08:17:42.600Z,11.37
2023-04-27T08:21:45.786Z,11.53
2023-04-27T08:25:48.880Z,11.43
2023-04-27T08:29:51.957Z,11.41
2023-04-27T08:33:57.460Z,11.40
2023-04-27T08:38:00.756Z,11.30
2023-04-27T08:42:12.780Z,11.29
2023-04-27T08:46:24.184Z,11.22
2023-04-27T08:50:28.256Z,11.04
2023-04-27T08:54:32.093Z,10.99
2023-04-27T08:58:39.610Z,10.85
2023-04-27T09:02:47.424Z,10.79
2023-04-27T09:06:51.658Z,10.92
2023-04-27T09:10:55.985Z,11.19
2023-04-27T09:15:06.460Z,11.52
2023-04-27T09:19:10.655Z,11.88
2023-04-27T09:23:31.748Z,12.13
2023-04-27T09:27:37.992Z,12.56
2023-04-27T09:31:42.368Z,12.79
2023-04-27T09:35:46.625Z,12.48
2023-04-27T09:39:50.780Z,12.17
2023-04-27T09:43:57.680Z,11.86
2023-04-27T09:48:02.296Z,11.59
2023-04-27T09:52:05.996Z,11.15
2023-04-27T09:56:31.557Z,10.85
2023-04-27T10:00:42.940Z,10.71
2023-04-27T10:05:10.385Z,10.60
2023-04-27T10:09:13.734Z,10.73
2023-04-27T10:13:26.349Z,10.89
2023-04-27T10:17:32.365Z,10.95
2023-04-27T10:21:35.591Z,10.85
2023-04-27T10:25:41.084Z,10.74
2023-04-27T10:29:46.258Z,10.76
2023-04-27T10:33:50.012Z,10.74
2023-04-27T10:38:08.976Z,10.67
2023-04-27T10:42:12.221Z,10.21
2023-04-27T10:46:16.050Z,9.95
2023-04-27T10:50:19.602Z,9.88
2023-04-27T10:54:26.310Z,9.85
2023-04-27T10:58:41.508Z,10.01
2023-04-27T11:02:52.422Z,10.28
2023-04-27T11:06:55.446Z,10.38
2023-04-27T11:10:58.420Z,10.68
2023-04-27T11:15:03.920Z,11.13
2023-04-27T11:19:07.445Z,11.59
2023-04-27T11:23:13.610Z,11.88
2023-04-27T11:27:17.033Z,12.17
2023-04-27T11:31:20.841Z,12.42
2023-04-27T11:35:34.688Z,12.53
2023-04-27T11:39:39.134Z,12.63
2023-04-27T11:43:43.508Z,12.83
2023-04-27T11:47:47.682Z,13.05
2023-04-27T11:51:51.751Z,13.08
2023-04-27T11:55:55.070Z,13.26
2023-04-27T12:00:01.793Z,13.39
2023-04-27T12:04:05.243Z,13.54
2023-04-27T12:08:08.556Z,13.58
2023-04-27T12:12:13.258Z,13.44
2023-04-27T12:16:17.122Z,13.16
2023-04-27T12:20:26.461Z,12.40
2023-04-27T12:24:29.623Z,12.00
2023-04-27T12:28:32.689Z,11.85
2023-04-27T12:32:36.286Z,11.99
2023-04-27T12:36:41.681Z,12.26
2023-04-27T12:40:45.185Z,12.51
2023-04-27T12:44:48.145Z,12.79
2023-04-27T12:48:51.170Z,12.98
2023-04-27T12:52:54.267Z,13.22
2023-04-27T12:56:57.254Z,13.41
2023-04-27T13:01:00.573Z,13.37
2023-04-27T13:05:08.080Z,13.33
2023-04-27T13:09:12.203Z,13.28
2023-04-27T13:13:16.093Z,13.52
2023-04-27T13:17:20.421Z,14.00
2023-04-27T13:21:23.735Z,14.16
2023-04-27T13:25:27.239Z,14.06
2023-04-27T13:29:30.971Z,13.77
2023-04-27T13:33:39.411Z,13.48
2023-04-27T13:37:42.548Z,13.31
2023-04-27T13:41:46.164Z,13.29
2023-04-27T13:45:50.970Z,13.27
2023-04-27T13:49:54.004Z,13.07
2023-04-27T13:53:57.036Z,13.05
2023-04-27T13:57:59.921Z,13.21
2023-04-27T14:02:03.762Z,13.35
2023-04-27T14:06:07.877Z,13.32
2023-04-27T14:10:11.164Z,13.03
2023-04-27T14:14:14.275Z,12.73
2023-04-27T14:18:18.219Z,12.43
2023-04-27T14:22:21.410Z,12.31
2023-04-27T14:26:26.385Z,12.12
2023-04-27T14:30:29.830Z,12.19
2023-04-27T14:34:32.831Z,12.28
2023-04-27T14:38:36.539Z,12.29
2023-04-27T14:42:39.618Z,12.34
2023-04-27T14:46:42.774Z,12.52
2023-04-27T14:50:47.075Z,12.68
2023-04-27T14:54:50.143Z,13.07
2023-04-27T14:58:55.400Z,13.07
2023-04-27T15:02:58.473Z,12.99
2023-04-27T15:07:03.344Z,13.02
2023-04-27T15:11:07.683Z,13.03
2023-04-27T15:15:12.895Z,12.87
2023-04-27T15:19:16.152Z,12.74
2023-04-27T15:23:19.796Z,12.79
2023-04-27T15:27:24.051Z,12.75
2023-04-27T15:31:27.559Z,12.80
2023-04-27T15:35:30.866Z,12.73
2023-04-27T15:39:35.909Z,12.68
2023-04-27T15:43:38.856Z,12.68
2023-04-27T15:47:42.134Z,12.87
2023-04-27T15:51:45.945Z,13.04
2023-04-27T15:55:49.028Z,13.37
2023-04-27T15:59:52.705Z,13.50
2023-04-27T16:04:00.516Z,13.38
2023-04-27T16:08:03.534Z,12.99
2023-04-27T16:12:06.666Z,12.65
2023-04-27T16:16:10.792Z,12.53
2023-04-27T16:20:14.984Z,12.61
2023-04-27T16:24:21.576Z,12.85
2023-04-27T16:28:24.582Z,12.98
2023-04-27T16:32:27.707Z,12.88
2023-04-27T16:36:33.924Z,12.78
2023-04-27T16:40:36.872Z,12.81
2023-04-27T16:44:40.447Z,12.73
2023-04-27T16:48:43.540Z,12.67
2023-04-27T16:52:46.788Z,12.75
2023-04-27T16:56:50.555Z,12.78
2023-04-27T17:00:53.746Z,12.69
2023-04-27T17:04:59.582Z,12.52
2023-04-27T17:09:03.156Z,12.37
2023-04-27T17:13:07.784Z,12.22
2023-04-27T17:17:11.474Z,12.11
2023-04-27T17:21:14.464Z,12.00
2023-04-27T17:25:17.601Z,11.91
2023-04-27T17:29:21.693Z,11.79
2023-04-27T17:33:24.666Z,11.65
2023-04-27T17:37:27.690Z,11.56
2023-04-27T17:41:32.837Z,11.45
2023-04-27T17:45:36.724Z,11.26
2023-04-27T17:49:39.848Z,11.06
2023-04-27T17:53:42.975Z,10.88
2023-04-27T17:57:47.130Z,10.67
2023-04-27T18:01:50.157Z,10.49
2023-04-27T18:05:53.550Z,10.35
2023-04-27T18:09:57.619Z,10.22
2023-04-27T18:14:00.462Z,10.13
2023-04-27T18:18:03.327Z,10.05
2023-04-27T18:22:06.774Z,9.98
2023-04-27T18:26:11.677Z,9.94
2023-04-27T18:30:15.938Z,9.69
2023-04-27T18:34:19.695Z,9.21
2023-04-27T18:38:23.730Z,8.96
2023-04-27T18:42:27.106Z,8.76
2023-04-27T18:46:30.905Z,8.66
2023-04-27T18:50:33.867Z,8.63
2023-04-27T18:54:37.517Z,8.69
2023-04-27T18:58:40.983Z,8.74
2023-04-27T19:02:44.175Z,8.66
2023-04-27T19:06:50.059Z,8.62
2023-04-27T19:10:53.105Z,8.50
2023-04-27T19:14:56.217Z,8.36
2023-04-27T19:19:02.481Z,8.35
2023-04-27T19:23:05.582Z,8.34
2023-04-27T19:27:41.723Z,8.27
2023-04-27T19:31:46.421Z,8.22
2023-04-27T19:36:03.236Z,8.14
2023-04-27T19:40:08.863Z,8.14
2023-04-27T19:44:21.150Z,8.14
2023-04-27T19:48:24.699Z,8.14
2023-04-27T19:52:35.202Z,8.14
2023-04-27T19:56:41.406Z,8.14
2023-04-27T20:00:45.185Z,8.09
2023-04-27T20:04:51.316Z,7.99
2023-04-27T20:08:54.992Z,7.98
2023-04-27T20:12:58.626Z,8.02
2023-04-27T20:17:03.230Z,8.11
2023-04-27T20:21:06.451Z,8.18
2023-04-27T20:25:10.872Z,8.21
2023-04-27T20:29:14.536Z,8.22
2023-04-27T20:33:18.103Z,8.21
2023-04-27T20:37:21.575Z,8.14
2023-04-27T20:41:31.064Z,7.96
2023-04-27T20:45:34.523Z,7.55
2023-04-27T20:49:37.863Z,7.40
2023-04-27T20:53:41.172Z,7.39
2023-04-27T20:57:44.382Z,7.34
2023-04-27T21:10:42.291Z,7.21
2023-04-27T21:14:45.192Z,7.14
2023-04-27T21:18:50.145Z,7.08
2023-04-27T21:22:52.813Z,6.96
2023-04-27T21:26:56.023Z,6.84
2023-04-27T21:30:58.763Z,6.68
2023-04-27T21:35:02.221Z,6.53
2023-04-27T21:39:05.968Z,6.42
2023-04-27T21:43:09.007Z,6.35
2023-04-27T21:47:14.824Z,6.33
2023-04-27T21:51:17.539Z,6.27
2023-04-27T21:55:20.388Z,6.19
2023-04-27T21:59:24.766Z,6.19
2023-04-27T22:03:28.702Z,6.20
2023-04-27T22:07:32.949Z,6.25
2023-04-27T22:11:35.938Z,6.33
2023-04-27T22:15:38.673Z,6.25
2023-04-27T22:19:41.738Z,6.11
2023-04-27T22:23:44.465Z,6.11
2023-04-27T22:27:47.730Z,6.13
2023-04-27T22:31:52.412Z,6.13
2023-04-27T22:35:55.387Z,6.14
2023-04-27T22:40:06.780Z,6.17
2023-04-27T22:44:09.563Z,6.05
2023-04-27T22:48:13.492Z,5.89
2023-04-27T22:52:16.623Z,5.81
2023-04-27T22:56:19.598Z,5.82
2023-04-27T23:00:22.568Z,5.92
2023-04-27T23:04:26.991Z,5.98
2023-04-27T23:08:29.681Z,6.08
2023-04-27T23:12:33.703Z,6.20
2023-04-27T23:16:37.938Z,6.32
2023-04-27T23:20:40.946Z,6.39
2023-04-27T23:24:43.627Z,6.44
2023-04-27T23:29:10.204Z,6.47
2023-04-27T23:33:13.784Z,6.51
2023-04-27T23:37:27.721Z,6.47
2023-04-27T23:41:30.473Z,6.44
2023-04-27T23:45:39.527Z,6.45
2023-04-27T23:49:45.537Z,6.42
2023-04-27T23:53:59.568Z,6.41
2023-04-27T23:58:03.100Z,6.38
